sensor_id;sensor_type;location;lat;lon;timestamp;pressure;altitude;pressure_sealevel;temperature;humidity
42945;BME280;28584;42.636;23.294;2023-06-24T00:01:04;163606.47;;;18.93;100.00
42945;BME280;28584;42.636;23.294;2023-06-24T00:03:30;163601.06;;;18.91;100.00
42945;BME280;28584;42.636;23.294;2023-06-24T00:05:57;163607.78;;;18.94;100.00
42945;BME280;28584;42.636;23.294;2023-06-24T00:08:22;163602.44;;;18.92;100.00
42945;BME280;28584;42.636;23.294;2023-06-24T00:10:48;163606.47;;;18.93;100.00
42945;BME280;28584;42.636;23.294;2023-06-24T00:13:16;163618.59;;;18.98;100.00
42945;BME280;28584;42.636;23.294;2023-06-24T00:15:43;163660.25;;;19.14;100.00
42945;BME280;28584;42.636;23.294;2023-06-24T00:18:11;163692.53;;;19.26;100.00
42945;BME280;28584;42.636;23.294;2023-06-24T00:20:37;163699.25;;;19.28;100.00
42945;BME280;28584;42.636;23.294;2023-06-24T00:23:02;163699.25;;;19.28;100.00
42945;BME280;28584;42.636;23.294;2023-06-24T00:25:31;163689.81;;;19.25;100.00
42945;BME280;28584;42.636;23.294;2023-06-24T00:27:57;163700.63;;;19.29;100.00
42945;BME280;28584;42.636;23.294;2023-06-24T00:30:23;163692.53;;;19.26;100.00
42945;BME280;28584;42.636;23.294;2023-06-24T00:32:48;163648.16;;;19.09;100.00
42945;BME280;28584;42.636;23.294;2023-06-24T00:35:14;163626.59;;;19.01;100.00
42945;BME280;28584;42.636;23.294;2023-06-24T00:37:40;163619.91;;;18.98;100.00
42945;BME280;28584;42.636;23.294;2023-06-24T00:40:08;163601.06;;;18.91;100.00
42945;BME280;28584;42.636;23.294;2023-06-24T00:42:40;163564.81;;;18.78;100.00
42945;BME280;28584;42.636;23.294;2023-06-24T00:45:06;163544.63;;;18.70;100.00
42945;BME280;28584;42.636;23.294;2023-06-24T00:47:32;163533.88;;;18.66;100.00
42945;BME280;28584;42.636;23.294;2023-06-24T00:49:57;163537.91;;;18.68;100.00
42945;BME280;28584;42.636;23.294;2023-06-24T00:52:23;163523.13;;;18.62;100.00
42945;BME280;28584;42.636;23.294;2023-06-24T00:54:49;163505.66;;;18.56;100.00
42945;BME280;28584;42.636;23.294;2023-06-24T00:57:15;163504.34;;;18.55;100.00
42945;BME280;28584;42.636;23.294;2023-06-24T00:59:43;163469.38;;;18.42;100.00
42945;BME280;28584;42.636;23.294;2023-06-24T01:02:09;163449.16;;;18.35;100.00
42945;BME280;28584;42.636;23.294;2023-06-24T01:04:35;163415.56;;;18.22;100.00
42945;BME280;28584;42.636;23.294;2023-06-24T01:07:02;163404.84;;;18.18;100.00
42945;BME280;28584;42.636;23.294;2023-06-24T01:09:29;163398.13;;;18.16;100.00
42945;BME280;28584;42.636;23.294;2023-06-24T01:11:55;163403.53;;;18.18;100.00
42945;BME280;28584;42.636;23.294;2023-06-24T01:14:20;163388.69;;;18.12;100.00
42945;BME280;28584;42.636;23.294;2023-06-24T01:16:59;163365.84;;;18.04;100.00
42945;BME280;28584;42.636;23.294;2023-06-24T01:29:07;163415.56;;;18.22;100.00
42945;BME280;28584;42.636;23.294;2023-06-24T01:31:46;163414.25;;;18.22;100.00
42945;BME280;28584;42.636;23.294;2023-06-24T01:34:40;163388.69;;;18.12;100.00
42945;BME280;28584;42.636;23.294;2023-06-24T01:37:15;163360.50;;;18.02;100.00
42945;BME280;28584;42.636;23.294;2023-06-24T01:42:45;163480.13;;;18.46;100.00
42945;BME280;28584;42.636;23.294;2023-06-24T01:45:42;163461.31;;;18.39;100.00
42945;BME280;28584;42.636;23.294;2023-06-24T01:48:13;163441.13;;;18.32;100.00
42945;BME280;28584;42.636;23.294;2023-06-24T01:50:43;163416.94;;;18.23;100.00
42945;BME280;28584;42.636;23.294;2023-06-24T01:53:09;163408.88;;;18.20;100.00
42945;BME280;28584;42.636;23.294;2023-06-24T01:55:37;163395.47;;;18.15;100.00
42945;BME280;28584;42.636;23.294;2023-06-24T01:58:05;163376.66;;;18.08;100.00
42945;BME280;28584;42.636;23.294;2023-06-24T02:00:33;163395.47;;;18.15;100.00
42945;BME280;28584;42.636;23.294;2023-06-24T02:03:01;163419.59;;;18.24;100.00
42945;BME280;28584;42.636;23.294;2023-06-24T02:05:27;163425.00;;;18.26;100.00
42945;BME280;28584;42.636;23.294;2023-06-24T02:07:53;163408.88;;;18.20;100.00
42945;BME280;28584;42.636;23.294;2023-06-24T02:10:20;163423.63;;;18.25;100.00
42945;BME280;28584;42.636;23.294;2023-06-24T02:12:48;163431.72;;;18.28;100.00
42945;BME280;28584;42.636;23.294;2023-06-24T02:15:15;163392.72;;;18.14;100.00
42945;BME280;28584;42.636;23.294;2023-06-24T02:17:42;163377.97;;;18.08;100.00
42945;BME280;28584;42.636;23.294;2023-06-24T02:20:08;163423.63;;;18.25;100.00
42945;BME280;28584;42.636;23.294;2023-06-24T02:22:37;163438.41;;;18.31;100.00
42945;BME280;28584;42.636;23.294;2023-06-24T02:25:05;163443.81;;;18.33;100.00
42945;BME280;28584;42.636;23.294;2023-06-24T02:27:32;163460.00;;;18.39;100.00
42945;BME280;28584;42.636;23.294;2023-06-24T02:29:58;163480.13;;;18.46;100.00
42945;BME280;28584;42.636;23.294;2023-06-24T02:32:25;163488.19;;;18.49;100.00
42945;BME280;28584;42.636;23.294;2023-06-24T02:34:50;163485.53;;;18.48;100.00
42945;BME280;28584;42.636;23.294;2023-06-24T02:37:15;163478.81;;;18.46;100.00
42945;BME280;28584;42.636;23.294;2023-06-24T02:39:41;163484.16;;;18.48;100.00
42945;BME280;28584;42.636;23.294;2023-06-24T02:42:10;163488.19;;;18.49;100.00
42945;BME280;28584;42.636;23.294;2023-06-24T02:44:37;163481.47;;;18.47;100.00
42945;BME280;28584;42.636;23.294;2023-06-24T02:47:03;163468.03;;;18.42;100.00
42945;BME280;28584;42.636;23.294;2023-06-24T02:49:29;163468.03;;;18.42;100.00
42945;BME280;28584;42.636;23.294;2023-06-24T02:51:55;163460.00;;;18.39;100.00
42945;BME280;28584;42.636;23.294;2023-06-24T02:54:21;163443.81;;;18.33;100.00
42945;BME280;28584;42.636;23.294;2023-06-24T02:56:47;163438.41;;;18.31;100.00
42945;BME280;28584;42.636;23.294;2023-06-24T02:59:13;163447.84;;;18.34;100.00
42945;BME280;28584;42.636;23.294;2023-06-24T03:01:39;163435.75;;;18.30;100.00
42945;BME280;28584;42.636;23.294;2023-06-24T03:04:05;163453.25;;;18.36;100.00
42945;BME280;28584;42.636;23.294;2023-06-24T03:06:32;163468.03;;;18.42;100.00
42945;BME280;28584;42.636;23.294;2023-06-24T03:08:58;163489.56;;;18.50;100.00
42945;BME280;28584;42.636;23.294;2023-06-24T03:11:24;163528.50;;;18.64;100.00
42945;BME280;28584;42.636;23.294;2023-06-24T03:13:50;163562.13;;;18.77;100.00
42945;BME280;28584;42.636;23.294;2023-06-24T03:16:16;163591.69;;;18.88;100.00
42945;BME280;28584;42.636;23.294;2023-06-24T03:18:41;163626.59;;;19.01;100.00
42945;BME280;28584;42.636;23.294;2023-06-24T03:21:08;163664.28;;;19.15;100.00
42945;BME280;28584;42.636;23.294;2023-06-24T03:23:34;163714.03;;;19.34;100.00
42945;BME280;28584;42.636;23.294;2023-06-24T03:25:59;163782.63;;;19.59;100.00
42945;BME280;28584;42.636;23.294;2023-06-24T03:28:24;163840.47;;;19.81;100.00
42945;BME280;28584;42.636;23.294;2023-06-24T03:30:50;163898.31;;;20.02;100.00
42945;BME280;28584;42.636;23.294;2023-06-24T03:33:15;163954.88;;;20.23;100.00
42945;BME280;28584;42.636;23.294;2023-06-24T03:35:42;163996.56;;;20.39;100.00
42945;BME280;28584;42.636;23.294;2023-06-24T03:38:08;164043.66;;;20.56;100.00
42945;BME280;28584;42.636;23.294;2023-06-24T03:40:33;164143.31;;;20.93;100.00
42945;BME280;28584;42.636;23.294;2023-06-24T03:42:58;164216.00;;;21.20;100.00
42945;BME280;28584;42.636;23.294;2023-06-24T03:45:24;164242.94;;;21.30;100.00
42945;BME280;28584;42.636;23.294;2023-06-24T03:47:49;164323.69;;;21.60;100.00
42945;BME280;28584;42.636;23.294;2023-06-24T03:50:15;164411.28;;;21.93;100.00
42945;BME280;28584;42.636;23.294;2023-06-24T03:52:40;164450.34;;;22.08;100.00
42945;BME280;28584;42.636;23.294;2023-06-24T03:55:05;164471.88;;;22.16;100.00
42945;BME280;28584;42.636;23.294;2023-06-24T03:57:31;164535.25;;;22.39;100.00
42945;BME280;28584;42.636;23.294;2023-06-24T03:59:56;164593.19;;;22.61;100.00
42945;BME280;28584;42.636;23.294;2023-06-24T04:02:22;164679.47;;;22.93;100.00
42945;BME280;28584;42.636;23.294;2023-06-24T04:04:47;164754.97;;;23.21;100.00
42945;BME280;28584;42.636;23.294;2023-06-24T04:07:15;164772.50;;;23.27;100.00
42945;BME280;28584;42.636;23.294;2023-06-24T04:09:54;164800.84;;;23.38;100.00
42945;BME280;28584;42.636;23.294;2023-06-24T04:12:20;164869.56;;;23.63;100.00
42945;BME280;28584;42.636;23.294;2023-06-24T04:14:45;164910.06;;;23.78;100.00
42945;BME280;28584;42.636;23.294;2023-06-24T04:17:10;164973.47;;;24.02;100.00
42945;BME280;28584;42.636;23.294;2023-06-24T04:19:36;164980.22;;;24.04;100.00
42945;BME280;28584;42.636;23.294;2023-06-24T04:22:01;165044.94;;;24.29;100.00
42945;BME280;28584;42.636;23.294;2023-06-24T04:24:27;165192.03;;;24.83;100.00
42945;BME280;28584;42.636;23.294;2023-06-24T04:26:52;165312.19;;;25.28;100.00
42945;BME280;28584;42.636;23.294;2023-06-24T04:29:17;165382.41;;;25.54;98.98
42945;BME280;28584;42.636;23.294;2023-06-24T04:31:43;165402.69;;;25.61;98.18
42945;BME280;28584;42.636;23.294;2023-06-24T04:34:08;165377.03;;;25.52;99.17
42945;BME280;28584;42.636;23.294;2023-06-24T04:36:33;165352.72;;;25.43;99.14
42945;BME280;28584;42.636;23.294;2023-06-24T04:39:00;165355.41;;;25.44;100.00
42945;BME280;28584;42.636;23.294;2023-06-24T04:41:25;165417.53;;;25.67;100.00
42945;BME280;28584;42.636;23.294;2023-06-24T04:43:51;165445.91;;;25.77;95.25
42945;BME280;28584;42.636;23.294;2023-06-24T04:46:16;165525.63;;;26.07;90.51
42945;BME280;28584;42.636;23.294;2023-06-24T04:48:41;165602.56;;;26.35;84.28
42945;BME280;28584;42.636;23.294;2023-06-24T04:51:07;165724.19;;;26.81;76.75
42945;BME280;28584;42.636;23.294;2023-06-24T04:53:32;165840.47;;;27.24;71.10
42945;BME280;28584;42.636;23.294;2023-06-24T04:55:58;165920.22;;;27.53;66.88
42945;BME280;28584;42.636;23.294;2023-06-24T04:58:24;166009.44;;;27.86;65.55
42945;BME280;28584;42.636;23.294;2023-06-24T05:00:49;165807.97;;;27.12;69.34
42945;BME280;28584;42.636;23.294;2023-06-24T05:03:14;165729.63;;;26.83;77.94
42945;BME280;28584;42.636;23.294;2023-06-24T05:05:40;165891.81;;;27.43;71.47
42945;BME280;28584;42.636;23.294;2023-06-24T05:08:05;165991.84;;;27.80;67.88
42945;BME280;28584;42.636;23.294;2023-06-24T05:10:31;166119.00;;;28.27;64.13
42945;BME280;28584;42.636;23.294;2023-06-24T05:12:56;166071.66;;;28.09;63.58
42945;BME280;28584;42.636;23.294;2023-06-24T05:15:21;165641.75;;;26.50;90.01
42945;BME280;28584;42.636;23.294;2023-06-24T05:17:47;165691.78;;;26.69;84.63
42945;BME280;28584;42.636;23.294;2023-06-24T05:20:12;165670.19;;;26.61;87.27
42945;BME280;28584;42.636;23.294;2023-06-24T05:22:37;165378.34;;;25.52;97.47
42945;BME280;28584;42.636;23.294;2023-06-24T05:25:03;165748.53;;;26.90;89.32
42945;BME280;28584;42.636;23.294;2023-06-24T05:27:28;165972.91;;;27.73;75.24
42945;BME280;28584;42.636;23.294;2023-06-24T05:29:54;166146.00;;;28.37;70.57
42945;BME280;28584;42.636;23.294;2023-06-24T05:32:19;166323.31;;;29.03;63.97
42945;BME280;28584;42.636;23.294;2023-06-24T05:34:46;166457.28;;;29.52;60.67
42945;BME280;28584;42.636;23.294;2023-06-24T05:37:11;166451.84;;;29.50;59.10
42945;BME280;28584;42.636;23.294;2023-06-24T05:39:36;166395.00;;;29.29;59.05
42945;BME280;28584;42.636;23.294;2023-06-24T05:42:02;166390.94;;;29.28;60.15
42945;BME280;28584;42.636;23.294;2023-06-24T05:44:27;165679.63;;;26.64;68.44
42945;BME280;28584;42.636;23.294;2023-06-24T05:46:53;165305.44;;;25.25;97.19
42945;BME280;28584;42.636;23.294;2023-06-24T05:49:18;165591.75;;;26.31;90.94
42945;BME280;28584;42.636;23.294;2023-06-24T05:51:43;165618.78;;;26.41;86.15
42945;BME280;28584;42.636;23.294;2023-06-24T05:54:09;165821.50;;;27.17;77.94
42945;BME280;28584;42.636;23.294;2023-06-24T05:56:34;166087.91;;;28.15;69.68
42945;BME280;28584;42.636;23.294;2023-06-24T05:59:01;165999.97;;;27.83;68.19
42945;BME280;28584;42.636;23.294;2023-06-24T06:01:26;166212.34;;;28.61;67.03
42945;BME280;28584;42.636;23.294;2023-06-24T06:03:52;166338.19;;;29.08;62.34
42945;BME280;28584;42.636;23.294;2023-06-24T06:06:17;166543.91;;;29.84;57.54
42945;BME280;28584;42.636;23.294;2023-06-24T06:08:43;166637.34;;;30.19;55.95
42945;BME280;28584;42.636;23.294;2023-06-24T06:11:08;166695.56;;;30.40;54.56
42945;BME280;28584;42.636;23.294;2023-06-24T06:13:33;166795.84;;;30.77;54.69
42945;BME280;28584;42.636;23.294;2023-06-24T06:15:59;166491.16;;;29.65;54.93
42945;BME280;28584;42.636;23.294;2023-06-24T06:18:24;166636.03;;;30.18;55.02
42945;BME280;28584;42.636;23.294;2023-06-24T06:20:50;166665.81;;;30.29;53.50
42945;BME280;28584;42.636;23.294;2023-06-24T06:23:15;166766.00;;;30.66;53.12
42945;BME280;28584;42.636;23.294;2023-06-24T06:25:41;166396.38;;;29.30;56.28
42945;BME280;28584;42.636;23.294;2023-06-24T06:28:06;166156.88;;;28.41;60.95
42945;BME280;28584;42.636;23.294;2023-06-24T06:30:32;166392.31;;;29.28;57.27
42945;BME280;28584;42.636;23.294;2023-06-24T06:32:57;166309.72;;;28.97;57.59
42945;BME280;28584;42.636;23.294;2023-06-24T06:35:22;166189.34;;;28.53;59.99
42945;BME280;28584;42.636;23.294;2023-06-24T06:37:48;165943.19;;;27.62;62.74
42945;BME280;28584;42.636;23.294;2023-06-24T06:40:18;166267.78;;;28.82;58.44
42945;BME280;28584;42.636;23.294;2023-06-24T06:42:43;166294.84;;;28.92;58.60
42945;BME280;28584;42.636;23.294;2023-06-24T06:45:09;166476.22;;;29.59;55.73
42945;BME280;28584;42.636;23.294;2023-06-24T06:47:35;166538.50;;;29.82;55.54
42945;BME280;28584;42.636;23.294;2023-06-24T06:50:00;166761.94;;;30.65;53.40
42945;BME280;28584;42.636;23.294;2023-06-24T06:52:25;166411.25;;;29.35;55.34
42945;BME280;28584;42.636;23.294;2023-06-24T06:54:52;166728.09;;;30.52;53.41
42945;BME280;28584;42.636;23.294;2023-06-24T06:57:17;166770.06;;;30.68;52.31
42945;BME280;28584;42.636;23.294;2023-06-24T06:59:43;167125.06;;;31.99;49.98
42945;BME280;28584;42.636;23.294;2023-06-24T07:02:08;167352.94;;;32.83;47.41
42945;BME280;28584;42.636;23.294;2023-06-24T07:04:34;166668.50;;;30.30;52.59
42945;BME280;28584;42.636;23.294;2023-06-24T07:06:59;166779.56;;;30.71;52.71
42945;BME280;28584;42.636;23.294;2023-06-24T07:09:24;166465.41;;;29.55;54.59
42945;BME280;28584;42.636;23.294;2023-06-24T07:11:50;166824.25;;;30.88;52.63
42945;BME280;28584;42.636;23.294;2023-06-24T07:14:15;167165.78;;;32.14;49.59
42945;BME280;28584;42.636;23.294;2023-06-24T07:16:40;166896.06;;;31.14;50.39
42945;BME280;28584;42.636;23.294;2023-06-24T07:19:06;166459.97;;;29.53;54.17
42945;BME280;28584;42.636;23.294;2023-06-24T07:21:31;166579.13;;;29.97;54.69
42945;BME280;28584;42.636;23.294;2023-06-24T07:23:57;166698.28;;;30.41;52.80
42945;BME280;28584;42.636;23.294;2023-06-24T07:26:22;166982.81;;;31.47;52.56
42945;BME280;28584;42.636;23.294;2023-06-24T07:28:47;167375.97;;;32.92;48.83
42945;BME280;28584;42.636;23.294;2023-06-24T07:31:13;167313.53;;;32.69;47.37
42945;BME280;28584;42.636;23.294;2023-06-24T07:33:38;166898.78;;;31.15;51.75
42945;BME280;28584;42.636;23.294;2023-06-24T07:36:04;167202.34;;;32.28;48.76
42945;BME280;28584;42.636;23.294;2023-06-24T07:38:29;167389.50;;;32.97;47.54
42945;BME280;28584;42.636;23.294;2023-06-24T07:40:55;167493.97;;;33.35;46.01
42945;BME280;28584;42.636;23.294;2023-06-24T07:43:21;167692.06;;;34.09;45.61
42945;BME280;28584;42.636;23.294;2023-06-24T07:45:46;167631.00;;;33.86;43.74
42945;BME280;28584;42.636;23.294;2023-06-24T07:48:11;167445.13;;;33.17;46.06
42945;BME280;28584;42.636;23.294;2023-06-24T07:50:38;166718.59;;;30.49;50.26
42945;BME280;28584;42.636;23.294;2023-06-24T07:53:04;166747.06;;;30.59;51.85
42945;BME280;28584;42.636;23.294;2023-06-24T07:55:29;166285.38;;;28.88;55.01
42945;BME280;28584;42.636;23.294;2023-06-24T07:57:55;166432.91;;;29.43;55.79
42945;BME280;28584;42.636;23.294;2023-06-24T08:00:20;166676.63;;;30.33;54.25
42945;BME280;28584;42.636;23.294;2023-06-24T08:02:45;166243.47;;;28.73;57.60
42945;BME280;28584;42.636;23.294;2023-06-24T08:05:11;166757.88;;;30.63;52.90
42945;BME280;28584;42.636;23.294;2023-06-24T08:07:37;167172.53;;;32.17;49.49
42945;BME280;28584;42.636;23.294;2023-06-24T08:10:03;166780.94;;;30.72;52.25
42945;BME280;28584;42.636;23.294;2023-06-24T08:12:29;167053.22;;;31.73;49.90
42945;BME280;28584;42.636;23.294;2023-06-24T08:14:54;167129.16;;;32.01;49.15
42945;BME280;28584;42.636;23.294;2023-06-24T08:17:20;167564.47;;;33.61;46.88
42945;BME280;28584;42.636;23.294;2023-06-24T08:19:45;167141.34;;;32.05;47.87
42945;BME280;28584;42.636;23.294;2023-06-24T08:22:10;166942.13;;;31.31;50.75
42945;BME280;28584;42.636;23.294;2023-06-24T08:24:36;166755.19;;;30.62;51.98
42945;BME280;28584;42.636;23.294;2023-06-24T08:27:02;166749.75;;;30.60;51.56
42945;BME280;28584;42.636;23.294;2023-06-24T08:29:27;166799.91;;;30.79;52.30
42945;BME280;28584;42.636;23.294;2023-06-24T08:31:53;166832.38;;;30.91;51.43
42945;BME280;28584;42.636;23.294;2023-06-24T08:34:18;167245.78;;;32.44;48.81
42945;BME280;28584;42.636;23.294;2023-06-24T08:36:43;167042.38;;;31.69;50.63
42945;BME280;28584;42.636;23.294;2023-06-24T08:39:09;167225.44;;;32.36;49.71
42945;BME280;28584;42.636;23.294;2023-06-24T08:41:34;167489.84;;;33.34;45.91
42945;BME280;28584;42.636;23.294;2023-06-24T08:44:00;167534.66;;;33.50;45.38
42945;BME280;28584;42.636;23.294;2023-06-24T08:46:25;167075.00;;;31.81;47.32
42945;BME280;28584;42.636;23.294;2023-06-24T08:49:02;167445.13;;;33.17;46.83
42945;BME280;28584;42.636;23.294;2023-06-24T08:51:33;167016.66;;;31.59;49.03
42945;BME280;28584;42.636;23.294;2023-06-24T08:54:01;167637.78;;;33.89;46.13
42945;BME280;28584;42.636;23.294;2023-06-24T08:56:26;167758.50;;;34.33;45.88
42945;BME280;28584;42.636;23.294;2023-06-24T08:58:52;167981.16;;;35.15;43.76
42945;BME280;28584;42.636;23.294;2023-06-24T09:01:18;168144.16;;;35.75;41.74
42945;BME280;28584;42.636;23.294;2023-06-24T09:03:43;168095.25;;;35.57;42.09
42945;BME280;28584;42.636;23.294;2023-06-24T09:06:08;167983.88;;;35.16;41.78
42945;BME280;28584;42.636;23.294;2023-06-24T09:08:34;167744.97;;;34.28;43.18
42945;BME280;28584;42.636;23.294;2023-06-24T09:11:00;167920.09;;;34.93;42.88
42945;BME280;28584;42.636;23.294;2023-06-24T09:13:35;168049.09;;;35.40;41.06
42945;BME280;28584;42.636;23.294;2023-06-24T09:16:11;168115.63;;;35.65;41.44
42945;BME280;28584;42.636;23.294;2023-06-24T09:18:38;168318.06;;;36.40;40.19
42945;BME280;28584;42.636;23.294;2023-06-24T09:21:03;168418.66;;;36.77;40.38
42945;BME280;28584;42.636;23.294;2023-06-24T09:23:28;168659.25;;;37.65;37.67
42945;BME280;28584;42.636;23.294;2023-06-24T09:25:57;168523.22;;;37.15;38.10
42945;BME280;28584;42.636;23.294;2023-06-24T09:28:26;168547.75;;;37.24;37.74
42945;BME280;28584;42.636;23.294;2023-06-24T09:31:08;168280.03;;;36.26;38.13
42945;BME280;28584;42.636;23.294;2023-06-24T09:33:35;168280.03;;;36.26;38.84
42945;BME280;28584;42.636;23.294;2023-06-24T09:36:03;168304.50;;;36.35;38.46
42945;BME280;28584;42.636;23.294;2023-06-24T09:38:36;168263.69;;;36.20;39.14
42945;BME280;28584;42.636;23.294;2023-06-24T09:41:05;167888.81;;;34.81;40.62
42945;BME280;28584;42.636;23.294;2023-06-24T09:43:34;168084.41;;;35.53;40.39
42945;BME280;28584;42.636;23.294;2023-06-24T09:46:01;168084.41;;;35.53;40.00
42945;BME280;28584;42.636;23.294;2023-06-24T09:48:27;168170.00;;;35.85;39.70
42945;BME280;28584;42.636;23.294;2023-06-24T09:50:55;168151.00;;;35.78;40.53
42945;BME280;28584;42.636;23.294;2023-06-24T09:53:24;167970.31;;;35.11;40.65
42945;BME280;28584;42.636;23.294;2023-06-24T09:55:50;168127.84;;;35.69;39.75
42945;BME280;28584;42.636;23.294;2023-06-24T09:58:18;168119.72;;;35.66;40.09
42945;BME280;28584;42.636;23.294;2023-06-24T10:00:44;168081.69;;;35.52;39.87
42945;BME280;28584;42.636;23.294;2023-06-24T10:03:10;168012.41;;;35.27;39.31
42945;BME280;28584;42.636;23.294;2023-06-24T10:05:36;167823.69;;;34.57;40.37
42945;BME280;28584;42.636;23.294;2023-06-24T10:18:46;167716.44;;;34.18;42.11
42945;BME280;28584;42.636;23.294;2023-06-24T10:21:12;167877.97;;;34.77;40.97
42945;BME280;28584;42.636;23.294;2023-06-24T10:23:53;167700.19;;;34.12;41.27
42945;BME280;28584;42.636;23.294;2023-06-24T10:26:35;167609.28;;;33.78;42.40
42945;BME280;28584;42.636;23.294;2023-06-24T10:31:51;167427.47;;;33.11;44.28
42945;BME280;28584;42.636;23.294;2023-06-24T10:37:10;167677.13;;;34.03;41.21
42945;BME280;28584;42.636;23.294;2023-06-24T10:42:30;167432.91;;;33.13;43.18
42945;BME280;28584;42.636;23.294;2023-06-24T10:45:00;167332.53;;;32.76;43.58
42945;BME280;28584;42.636;23.294;2023-06-24T10:47:26;167167.09;;;32.15;44.75
42945;BME280;28584;42.636;23.294;2023-06-24T10:49:52;167083.06;;;31.84;45.83
42945;BME280;28584;42.636;23.294;2023-06-24T10:52:19;167209.09;;;32.30;43.76
42945;BME280;28584;42.636;23.294;2023-06-24T10:54:48;167460.03;;;33.23;44.35
42945;BME280;28584;42.636;23.294;2023-06-24T10:57:14;167635.09;;;33.88;42.57
42945;BME280;28584;42.636;23.294;2023-06-24T10:59:40;167796.59;;;34.47;40.89
42945;BME280;28584;42.636;23.294;2023-06-24T11:02:13;168125.09;;;35.68;39.11
42945;BME280;28584;42.636;23.294;2023-06-24T11:04:46;168315.38;;;36.39;37.73
42945;BME280;28584;42.636;23.294;2023-06-24T11:07:12;168383.25;;;36.64;37.16
42945;BME280;28584;42.636;23.294;2023-06-24T11:09:39;168481.09;;;37.00;35.95
42945;BME280;28584;42.636;23.294;2023-06-24T11:12:05;168856.34;;;38.38;33.90
42945;BME280;28584;42.636;23.294;2023-06-24T11:14:33;168750.28;;;37.99;33.62
42945;BME280;28584;42.636;23.294;2023-06-24T11:17:01;168704.06;;;37.82;34.53
42945;BME280;28584;42.636;23.294;2023-06-24T11:19:27;168804.72;;;38.19;33.63
42945;BME280;28584;42.636;23.294;2023-06-24T11:21:52;169027.78;;;39.01;33.04
42945;BME280;28584;42.636;23.294;2023-06-24T11:24:17;169177.44;;;39.56;31.74
42945;BME280;28584;42.636;23.294;2023-06-24T11:26:43;169248.25;;;39.82;31.97
42945;BME280;28584;42.636;23.294;2023-06-24T11:29:11;168772.06;;;38.07;32.79
42945;BME280;28584;42.636;23.294;2023-06-24T11:31:37;168447.16;;;36.87;35.03
42945;BME280;28584;42.636;23.294;2023-06-24T11:34:03;168100.69;;;35.59;37.48
42945;BME280;28584;42.636;23.294;2023-06-24T11:36:28;167462.72;;;33.24;38.59
42945;BME280;28584;42.636;23.294;2023-06-24T11:38:54;167692.06;;;34.09;38.48
42945;BME280;28584;42.636;23.294;2023-06-24T11:41:22;167587.53;;;33.70;39.78
42945;BME280;28584;42.636;23.294;2023-06-24T11:43:48;167462.72;;;33.24;40.17
42945;BME280;28584;42.636;23.294;2023-06-24T11:46:30;167442.38;;;33.16;40.65
42945;BME280;28584;42.636;23.294;2023-06-24T11:49:07;167413.94;;;33.06;41.94
42945;BME280;28584;42.636;23.294;2023-06-24T11:51:34;167346.09;;;32.81;41.35
42945;BME280;28584;42.636;23.294;2023-06-24T11:54:03;167298.63;;;32.63;41.77
42945;BME280;28584;42.636;23.294;2023-06-24T11:56:36;167324.38;;;32.73;42.56
42945;BME280;28584;42.636;23.294;2023-06-24T11:59:22;167340.66;;;32.79;40.70
42945;BME280;28584;42.636;23.294;2023-06-24T12:01:56;167365.13;;;32.88;42.13
42945;BME280;28584;42.636;23.294;2023-06-24T12:04:28;167336.59;;;32.77;40.93
42945;BME280;28584;42.636;23.294;2023-06-24T12:06:54;167392.19;;;32.98;40.94
42945;BME280;28584;42.636;23.294;2023-06-24T12:09:19;167348.81;;;32.82;41.07
42945;BME280;28584;42.636;23.294;2023-06-24T12:11:45;167300.00;;;32.64;41.25
42945;BME280;28584;42.636;23.294;2023-06-24T12:14:10;167251.16;;;32.46;42.22
42945;BME280;28584;42.636;23.294;2023-06-24T12:16:36;167248.47;;;32.45;41.49
42945;BME280;28584;42.636;23.294;2023-06-24T12:19:02;167325.75;;;32.73;41.67
42945;BME280;28584;42.636;23.294;2023-06-24T12:21:27;167294.56;;;32.62;41.59
42945;BME280;28584;42.636;23.294;2023-06-24T12:23:53;167031.56;;;31.65;43.18
42945;BME280;28584;42.636;23.294;2023-06-24T12:26:18;167093.97;;;31.88;43.55
42945;BME280;28584;42.636;23.294;2023-06-24T12:28:44;167064.06;;;31.77;42.53
42945;BME280;28584;42.636;23.294;2023-06-24T12:31:11;167127.81;;;32.00;42.62
42945;BME280;28584;42.636;23.294;2023-06-24T12:33:36;167192.88;;;32.24;42.33
42945;BME280;28584;42.636;23.294;2023-06-24T12:36:02;167064.06;;;31.77;42.75
42945;BME280;28584;42.636;23.294;2023-06-24T12:38:27;167080.38;;;31.83;43.76
42945;BME280;28584;42.636;23.294;2023-06-24T12:40:53;167098.03;;;31.89;44.17
42945;BME280;28584;42.636;23.294;2023-06-24T12:43:18;167150.88;;;32.09;47.71
42945;BME280;28584;42.636;23.294;2023-06-24T12:45:43;167183.38;;;32.21;46.27
42945;BME280;28584;42.636;23.294;2023-06-24T12:48:10;167118.31;;;31.97;47.36
42945;BME280;28584;42.636;23.294;2023-06-24T12:50:35;167107.47;;;31.93;48.31
42945;BME280;28584;42.636;23.294;2023-06-24T12:53:01;167061.34;;;31.76;50.13
42945;BME280;28584;42.636;23.294;2023-06-24T12:55:27;167126.44;;;32.00;50.83
42945;BME280;28584;42.636;23.294;2023-06-24T12:57:52;167148.13;;;32.08;48.08
42945;BME280;28584;42.636;23.294;2023-06-24T13:00:21;167055.97;;;31.74;49.47
42945;BME280;28584;42.636;23.294;2023-06-24T13:02:47;167034.25;;;31.66;51.57
42945;BME280;28584;42.636;23.294;2023-06-24T13:05:12;167020.72;;;31.61;52.02